.
WxDataArchive / Data Records for 2014-07-21
2014-07-20 July 2014 2014-07-22

Data Records for Monday, 21 July 2014

Time	Temp	Chill	HIndex	Humid	Dewpt	 Wind 	HiWind	WindDir	Rain 	Barom
-----	----	-----	------	-----	-----	------	------	-------	-----	-----
00:00	66.3	66.3	66.3	82	60.6	0	0	---	0.00	30.028 
00:05	66.1	66.1	66.1	83	60.8	0	0	---	0.00	30.028 
00:10	66.0	66.0	66.0	83	60.7	0	0	---	0.00	30.028 
00:15	65.8	65.8	65.8	84	60.8	0	0	---	0.00	30.026 
00:20	65.6	65.6	65.6	84	60.6	0	0	---	0.00	30.026 
00:25	65.5	65.5	65.5	84	60.5	0	0	---	0.00	30.026 
00:30	65.5	65.5	65.5	85	60.9	0	0	---	0.00	30.026 
00:35	65.3	65.3	65.3	85	60.7	0	0	---	0.00	30.026 
00:40	65.2	65.2	65.2	86	60.9	0	0	---	0.00	30.026 
00:45	65.2	65.2	65.2	86	60.9	0	0	---	0.00	30.025 
00:50	65.0	65.0	65.0	86	60.7	0	0	---	0.00	30.025 
00:55	65.0	65.0	65.0	86	60.7	0	0	---	0.00	30.025 
01:00	64.8	64.8	64.8	87	60.8	0	0	---	0.00	30.027 
01:05	64.7	64.7	64.7	87	60.7	0	0	---	0.00	30.027 
01:10	64.7	64.7	64.7	87	60.7	0	0	---	0.00	30.027 
01:15	64.7	64.7	64.7	87	60.7	0	0	---	0.00	30.027 
01:20	64.5	64.5	64.5	87	60.5	0	0	---	0.00	30.027 
01:25	64.5	64.5	64.5	87	60.5	0	0	---	0.00	30.027 
01:30	64.5	64.5	64.5	88	60.9	0	0	---	0.00	30.026 
01:35	64.3	64.3	64.3	88	60.7	0	0	---	0.00	30.026 
01:40	64.2	64.2	64.2	88	60.6	0	0	---	0.00	30.026 
01:45	64.2	64.2	64.2	88	60.6	0	0	---	0.00	30.028 
01:50	64.0	64.0	64.0	88	60.4	0	0	---	0.00	30.028 
01:55	63.9	63.9	63.9	88	60.3	0	0	---	0.00	30.028 
02:00	63.9	63.9	63.9	88	60.3	0	0	---	0.00	30.022 
02:05	63.7	63.7	63.7	88	60.1	0	0	---	0.00	30.022 
02:10	63.5	63.5	63.5	89	60.2	0	0	---	0.00	30.022 
02:15	63.5	63.5	63.5	89	60.2	0	0	---	0.00	30.018 
02:20	63.4	63.4	63.4	89	60.1	0	0	---	0.00	30.018 
02:25	63.2	63.2	63.2	89	59.9	0	0	---	0.00	30.018 
02:30	63.2	63.2	63.2	89	59.9	0	0	---	0.00	30.022 
02:35	63.1	63.1	63.1	90	60.1	0	0	---	0.00	30.022 
02:40	63.1	63.1	63.1	90	60.1	0	0	---	0.00	30.022 
02:45	62.9	62.9	62.9	90	59.9	0	0	---	0.00	30.023 
02:50	62.9	62.9	62.9	90	59.9	0	0	---	0.00	30.023 
02:55	62.9	62.9	62.9	90	59.9	0	0	---	0.00	30.023 
03:00	62.7	62.7	62.7	91	60.0	0	0	---	0.00	30.023 
03:05	62.7	62.7	62.7	91	60.0	0	0	---	0.00	30.023 
03:10	62.6	62.6	62.6	91	59.9	0	0	---	0.00	30.023 
03:15	62.6	62.6	62.6	91	59.9	0	0	---	0.00	30.021 
03:20	62.6	62.6	62.6	91	59.9	0	0	---	0.00	30.021 
03:25	62.4	62.4	62.4	91	59.7	0	0	---	0.00	30.021 
03:30	62.4	62.4	62.4	91	59.7	0	0	---	0.00	30.022 
03:35	62.3	62.3	62.3	92	59.9	0	0	---	0.00	30.022 
03:40	62.3	62.3	62.3	92	59.9	0	0	---	0.00	30.022 
03:45	62.3	62.3	62.3	92	59.9	0	0	---	0.00	30.025 
03:50	62.1	62.1	62.1	92	59.7	0	0	---	0.00	30.025 
03:55	62.0	62.0	62.0	92	59.6	0	0	---	0.00	30.025 
04:00	61.8	61.8	61.8	92	59.4	0	0	---	0.00	30.028 
04:05	61.8	61.8	61.8	92	59.4	0	0	---	0.00	30.028 
04:10	61.6	61.6	61.6	92	59.2	0	0	---	0.00	30.028 
04:15	61.6	61.6	61.6	92	59.2	0	0	---	0.00	30.031 
04:20	61.5	61.5	61.5	92	59.2	0	0	---	0.00	30.031 
04:25	61.5	61.5	61.5	92	59.2	0	0	---	0.00	30.031 
04:30	61.3	61.3	61.3	92	59.0	0	0	---	0.00	30.031 
04:35	61.3	61.3	61.3	92	59.0	0	0	---	0.00	30.031 
04:40	61.3	61.3	61.3	92	59.0	0	0	---	0.00	30.031 
04:45	61.2	61.2	61.2	93	59.2	0	0	---	0.00	30.036 
04:50	61.2	61.2	61.2	93	59.2	0	0	---	0.00	30.036 
04:55	61.2	61.2	61.2	93	59.2	0	0	---	0.00	30.036 
05:00	61.2	61.2	61.2	93	59.2	0	0	---	0.00	30.046 
05:05	61.0	61.0	61.0	93	59.0	0	0	---	0.00	30.046 
05:10	60.9	60.9	60.9	93	58.9	0	0	---	0.00	30.046 
05:15	60.9	60.9	60.9	93	58.9	0	0	---	0.00	30.048 
05:20	60.7	60.7	60.7	93	58.7	0	0	---	0.00	30.048 
05:25	60.7	60.7	60.7	93	58.7	0	0	---	0.00	30.048 
05:30	60.5	60.5	60.5	93	58.5	0	0	---	0.00	30.047 
05:35	60.5	60.5	60.5	93	58.5	0	0	---	0.00	30.047 
05:40	60.5	60.5	60.5	93	58.5	0	0	---	0.00	30.047 
05:45	60.5	60.5	60.5	93	58.5	0	0	---	0.00	30.048 
05:50	60.5	60.5	60.5	93	58.5	0	0	---	0.00	30.048 
05:55	60.5	60.5	60.5	94	58.8	0	0	---	0.00	30.048 
06:00	60.5	60.5	60.5	94	58.8	0	0	---	0.00	30.054 
06:05	60.5	60.5	60.5	93	58.5	0	0	---	0.00	30.054 
06:10	60.4	60.4	60.4	94	58.7	0	0	---	0.00	30.054 
06:15	60.5	60.5	60.5	94	58.8	0	0	---	0.00	30.065 
06:20	60.4	60.4	60.4	94	58.7	0	0	---	0.00	30.065 
06:25	60.4	60.4	60.4	94	58.7	0	0	---	0.00	30.065 
06:30	60.4	60.4	60.4	94	58.7	0	0	---	0.00	30.067 
06:35	60.2	60.2	60.2	94	58.5	0	0	---	0.00	30.067 
06:40	60.1	60.1	60.1	94	58.4	0	0	---	0.00	30.067 
06:45	60.1	60.1	60.1	94	58.4	0	0	---	0.00	30.070 
06:50	60.1	60.1	60.1	94	58.4	0	0	---	0.00	30.070 
06:55	60.1	60.1	60.1	94	58.4	0	0	---	0.00	30.070 
07:00	60.1	60.1	60.1	94	58.4	0	0	---	0.00	30.077 
07:05	60.2	60.2	60.2	94	58.5	0	0	---	0.00	30.077 
07:10	60.5	60.5	60.5	95	59.1	0	0	---	0.00	30.077 
07:15	60.9	60.9	60.9	95	59.5	0	0	---	0.00	30.081 
07:20	61.2	61.2	61.2	95	59.8	0	0	---	0.00	30.081 
07:25	61.3	61.3	61.3	95	59.9	0	0	---	0.00	30.081 
07:30	61.6	61.6	61.6	95	60.2	0	0	---	0.00	30.089 
07:35	62.1	62.1	62.1	95	60.6	0	0	---	0.00	30.089 
07:40	62.4	62.4	62.4	95	60.9	0	0	---	0.00	30.089 
07:45	62.9	62.9	62.9	95	61.4	0	0	---	0.00	30.093 
07:50	63.5	63.5	63.5	95	62.0	0	0	---	0.00	30.093 
07:55	64.0	64.0	64.0	95	62.5	0	1	90	0.00	30.093 
08:00	64.2	64.2	64.2	94	62.4	0	1	90	0.00	30.095 
08:05	64.7	64.7	64.7	94	62.9	0	1	90	0.00	30.095 
08:10	65.2	65.2	65.2	93	63.1	0	1	90	0.00	30.095 
08:15	65.6	65.6	65.6	92	63.2	0	1	90	0.00	30.099 
08:20	66.3	66.3	66.3	91	63.6	0	0	---	0.00	30.099 
08:25	67.1	67.1	67.1	90	64.1	0	0	---	0.00	30.099 
08:30	67.8	67.8	67.8	88	64.1	0	1	90	0.00	30.100 
08:35	68.3	68.3	68.3	86	63.9	0	1	90	0.00	30.100 
08:40	69.1	69.1	69.1	85	64.4	0	0	---	0.00	30.100 
08:45	69.8	69.8	69.8	83	64.4	0	1	90	0.00	30.100 
08:50	70.4	70.4	70.4	81	64.3	0	2	90	0.00	30.100 
08:55	71.1	71.1	71.1	79	64.2	0	0	---	0.00	30.100 
09:00	72.1	72.1	72.1	77	64.5	0	0	---	0.00	30.101 
09:05	72.8	72.8	72.8	74	64.0	0	0	---	0.00	30.101 
09:10	73.9	73.9	73.9	73	64.7	0	0	---	0.00	30.101 
09:15	74.4	74.4	74.4	70	64.0	0	0	---	0.00	30.107 
09:20	74.9	74.9	74.9	69	64.0	0	1	90	0.00	30.107 
09:25	75.6	75.6	77.4	67	63.9	0	1	90	0.00	30.107 
09:30	76.3	76.3	78.1	67	64.5	0	1	90	0.00	30.105 
09:35	76.7	76.7	78.5	66	64.5	0	1	90	0.00	30.105 
09:40	77.4	77.4	79.2	65	64.7	0	1	90	0.00	30.105 
09:45	77.7	77.7	79.5	63	64.1	0	1	90	0.00	30.101 
09:50	78.3	78.3	80.1	62	64.2	0	1	90	0.00	30.101 
09:55	78.8	78.8	80.5	60	63.7	0	1	90	0.00	30.101 
10:00	79.6	79.6	81.2	58	63.5	0	1	90	0.00	30.103 
10:05	79.8	79.8	81.4	58	63.7	0	1	90	0.00	30.103 
10:10	79.9	79.9	81.4	57	63.3	0	1	90	0.00	30.103 
10:15	80.1	80.1	81.5	56	63.0	0	1	90	0.00	30.102 
10:20	80.5	80.5	81.9	56	63.3	0	2	90	0.00	30.102 
10:25	80.5	80.5	81.9	56	63.3	0	3	90	0.00	30.102 
10:30	80.5	80.5	81.7	54	62.3	0	3	90	0.00	30.094 
10:35	80.9	80.9	82.3	55	63.2	0	1	90	0.00	30.094 
10:40	81.1	81.1	82.2	53	62.3	0	1	90	0.00	30.094 
10:45	81.2	81.2	82.5	54	62.9	0	1	90	0.00	30.092 
10:50	81.2	81.2	82.5	54	62.9	0	1	90	0.00	30.092 
10:55	81.6	81.6	82.9	54	63.3	0	2	90	0.00	30.092 
11:00	82.0	82.0	83.2	53	63.2	0	2	90	0.00	30.089 
11:05	82.2	82.2	83.1	51	62.2	1	3	90	0.00	30.089 
11:10	82.2	82.2	83.1	51	62.2	0	2	90	0.00	30.089 
11:15	82.4	82.4	83.2	50	61.9	1	3	90	0.00	30.090 
11:20	82.4	82.4	83.2	50	61.9	1	3	90	0.00	30.090 
11:25	82.4	82.4	83.2	50	61.9	1	4	90	0.00	30.090 
11:30	82.4	82.4	83.2	50	61.9	0	1	90	0.00	30.090 
11:35	82.6	82.6	83.3	49	61.5	0	2	90	0.00	30.090 
11:40	82.6	82.6	83.3	49	61.5	0	3	90	0.00	30.090 
11:45	82.6	82.6	83.4	50	62.0	1	3	90	0.00	30.090 
11:50	82.4	82.4	82.7	47	60.1	1	3	90	0.00	30.090 
11:55	82.6	82.6	83.4	50	62.0	0	1	90	0.00	30.090 
12:00	83.0	83.0	83.7	49	61.8	1	3	90	0.00	30.090 
12:05	83.0	83.0	83.5	48	61.3	1	4	90	0.00	30.090 
12:10	82.8	82.8	83.5	49	61.7	1	4	90	0.00	30.090 
12:15	83.2	83.2	83.8	48	61.4	0	3	90	0.00	30.088 
12:20	83.4	83.4	83.7	46	60.4	0	2	90	0.00	30.088 
12:25	83.6	83.6	83.9	46	60.6	1	3	90	0.00	30.088 
12:30	83.6	83.6	84.1	47	61.2	1	3	90	0.00	30.089 
12:35	84.0	84.0	84.0	44	59.7	1	5	90	0.00	30.089 
12:40	83.4	83.4	83.7	46	60.4	1	3	90	0.00	30.089 
12:45	83.6	83.6	83.9	46	60.6	0	2	90	0.00	30.088 
12:50	84.1	84.1	84.3	45	60.4	1	3	90	0.00	30.088 
12:55	84.5	84.5	84.5	44	60.2	0	2	90	0.00	30.088 
13:00	84.5	84.5	84.3	43	59.5	0	2	90	0.00	30.087 
13:05	84.9	84.9	84.8	43	59.9	0	2	90	0.00	30.087 
13:10	85.1	85.1	85.0	43	60.1	1	3	180	0.00	30.087 
13:15	85.3	85.3	85.7	45	61.5	1	3	135	0.00	30.084 
13:20	85.1	85.1	85.4	45	61.3	1	3	112	0.00	30.084 
13:25	85.1	85.1	85.4	45	61.3	1	3	112	0.00	30.084 
13:30	84.7	84.7	84.7	44	60.3	1	3	112	0.00	30.083 
13:35	84.7	84.7	85.0	45	61.0	1	4	112	0.00	30.083 
13:40	84.9	84.9	85.0	44	60.5	0	2	112	0.00	30.083 
13:45	85.5	85.5	85.1	41	59.1	1	3	112	0.00	30.080 
13:50	86.1	86.1	86.5	44	61.6	0	3	135	0.00	30.080 
13:55	86.3	86.3	85.6	39	58.4	1	4	135	0.00	30.080 
14:00	86.1	86.1	85.8	41	59.6	1	2	135	0.00	30.075 
14:05	86.1	86.1	86.0	42	60.3	1	3	112	0.00	30.075 
14:10	85.9	85.9	85.3	40	58.7	1	6	90	0.00	30.075 
14:15	85.7	85.7	85.1	40	58.6	1	2	90	0.00	30.075 
14:20	85.7	85.7	85.7	43	60.6	1	5	90	0.00	30.075 
14:25	85.5	85.5	85.3	42	59.8	1	3	90	0.00	30.075 
14:30	85.7	85.7	85.3	41	59.3	1	3	90	0.00	30.074 
14:35	85.7	85.7	85.3	41	59.3	1	2	90	0.00	30.074 
14:40	85.1	85.1	85.4	45	61.3	0	1	90	0.00	30.074 
14:45	85.1	85.1	84.6	41	58.7	1	6	90	0.00	30.071 
14:50	84.9	84.9	84.4	41	58.5	1	2	68	0.00	30.071 
14:55	84.3	84.3	83.9	42	58.7	0	2	68	0.00	30.071 
15:00	84.1	84.1	84.3	45	60.4	0	1	90	0.00	30.070 
15:05	84.7	84.7	84.0	40	57.7	1	5	90	0.00	30.070 
15:10	85.5	85.5	85.7	44	61.1	0	3	90	0.00	30.070 
15:15	85.9	85.9	85.7	42	60.1	1	4	90	0.00	30.064 
15:20	85.9	85.9	85.5	41	59.4	1	4	90	0.00	30.064 
15:25	85.5	85.5	85.1	41	59.1	2	5	90	0.00	30.064 
15:30	85.5	85.5	84.9	40	58.4	1	3	90	0.00	30.060 
15:35	85.7	85.7	85.3	41	59.3	2	4	112	0.00	30.060 
15:40	85.7	85.7	85.3	41	59.3	1	3	135	0.00	30.060 
15:45	86.3	86.3	86.7	44	61.8	0	2	135	0.00	30.059 
15:50	86.7	86.7	86.0	39	58.7	1	3	135	0.00	30.059 
15:55	86.7	86.7	86.5	41	60.1	1	3	112	0.00	30.059 
16:00	86.5	86.5	86.3	41	60.0	1	4	112	0.00	30.058 
16:05	86.5	86.5	86.5	42	60.6	0	3	112	0.00	30.058 
16:10	87.0	87.0	86.2	38	58.3	1	2	112	0.00	30.058 
16:15	87.0	87.0	86.6	40	59.7	0	2	90	0.00	30.055 
16:20	87.2	87.2	86.2	37	57.7	1	3	90	0.00	30.055 
16:25	86.7	86.7	85.8	38	58.0	1	4	90	0.00	30.055 
16:30	85.9	85.9	85.5	41	59.4	2	4	90	0.00	30.056 
16:35	86.1	86.1	85.6	40	58.9	0	4	90	0.00	30.056 
16:40	86.5	86.5	86.5	42	60.6	0	2	135	0.00	30.056 
16:45	86.7	86.7	86.3	40	59.5	1	2	135	0.00	30.053 
16:50	86.7	86.7	86.0	39	58.7	1	2	202	0.00	30.053 
16:55	86.1	86.1	85.6	40	58.9	1	4	90	0.00	30.053 
17:00	86.1	86.1	85.6	40	58.9	1	4	90	0.00	30.049 
17:05	85.9	85.9	85.1	39	58.0	1	4	90	0.00	30.049 
17:10	85.9	85.9	85.3	40	58.7	0	2	90	0.00	30.049 
17:15	86.3	86.3	86.0	41	59.8	0	2	112	0.00	30.045 
17:20	86.5	86.5	86.3	41	60.0	0	2	112	0.00	30.045 
17:25	86.3	86.3	85.8	40	59.1	1	3	135	0.00	30.045 
17:30	86.3	86.3	85.8	40	59.1	0	4	135	0.00	30.045 
17:35	85.9	85.9	85.5	41	59.4	1	4	112	0.00	30.045 
17:40	86.1	86.1	85.6	40	58.9	0	2	112	0.00	30.045 
17:45	86.1	86.1	85.4	39	58.2	0	2	202	0.00	30.044 
17:50	86.1	86.1	85.8	41	59.6	1	3	90	0.00	30.044 
17:55	86.1	86.1	85.6	40	58.9	0	2	90	0.00	30.044 
18:00	85.9	85.9	85.7	42	60.1	1	3	112	0.00	30.046 
18:05	85.3	85.3	84.8	41	58.9	1	4	112	0.00	30.046 
18:10	84.9	84.9	84.4	41	58.5	1	3	90	0.00	30.046 
18:15	84.7	84.7	84.4	42	59.0	1	4	90	0.00	30.048 
18:20	84.3	84.3	84.1	43	59.3	0	3	90	0.00	30.048 
18:25	84.1	84.1	84.1	44	59.8	0	2	135	0.00	30.048 
18:30	84.1	84.1	83.9	43	59.2	0	2	135	0.00	30.048 
18:35	84.1	84.1	83.9	43	59.2	1	3	135	0.00	30.048 
18:40	84.0	84.0	84.0	44	59.7	0	3	135	0.00	30.048 
18:45	84.0	84.0	84.0	44	59.7	0	2	135	0.00	30.050 
18:50	84.0	84.0	83.8	43	59.1	0	2	135	0.00	30.050 
18:55	84.0	84.0	84.0	44	59.7	0	1	135	0.00	30.050 
19:00	83.8	83.8	83.4	42	58.2	0	1	135	0.00	30.052 
19:05	83.8	83.8	83.6	43	58.9	0	1	135	0.00	30.052 
19:10	83.6	83.6	83.7	45	60.0	0	2	135	0.00	30.052 
19:15	83.4	83.4	83.3	44	59.2	0	2	135	0.00	30.052 
19:20	83.4	83.4	83.7	46	60.4	0	1	135	0.00	30.052 
19:25	83.2	83.2	83.1	44	59.0	0	2	135	0.00	30.052 
19:30	83.0	83.0	83.1	45	59.4	0	1	135	0.00	30.048 
19:35	83.0	83.0	83.2	46	60.1	0	1	135	0.00	30.048 
19:40	82.8	82.8	83.2	47	60.5	0	2	135	0.00	30.048 
19:45	82.6	82.6	82.8	46	59.7	0	2	135	0.00	30.049 
19:50	82.6	82.6	83.0	47	60.3	0	2	135	0.00	30.049 
19:55	82.4	82.4	82.7	47	60.1	0	2	135	0.00	30.049 
20:00	82.2	82.2	82.5	47	59.9	0	1	135	0.00	30.046 
20:05	82.0	82.0	82.5	48	60.3	0	0	---	0.00	30.046 
20:10	81.8	81.8	82.4	49	60.7	0	1	135	0.00	30.046 
20:15	81.6	81.6	82.2	49	60.6	0	1	135	0.00	30.040 
20:20	81.4	81.4	82.1	50	60.9	0	0	---	0.00	30.040 
20:25	81.2	81.2	81.9	50	60.8	0	0	---	0.00	30.040 
20:30	80.9	80.9	81.8	51	61.0	0	0	---	0.00	30.046 
20:35	80.7	80.7	81.7	52	61.4	0	0	---	0.00	30.046 
20:40	80.3	80.3	81.3	52	61.0	0	0	---	0.00	30.046 
20:45	79.9	79.9	80.9	52	60.7	0	0	---	0.00	30.047 
20:50	79.8	79.8	80.9	53	61.1	0	0	---	0.00	30.047 
20:55	79.4	79.4	80.5	53	60.8	0	0	---	0.00	30.047 
21:00	79.2	79.2	80.4	54	61.1	0	0	---	0.00	30.046 
21:05	79.0	79.0	80.4	56	61.9	0	0	---	0.00	30.046 
21:10	78.5	78.5	79.9	56	61.5	0	0	---	0.00	30.046 
21:15	77.9	77.9	79.4	56	60.9	0	0	---	0.00	30.041 
21:20	77.6	77.6	79.2	57	61.1	0	0	---	0.00	30.041 
21:25	77.2	77.2	78.9	58	61.3	0	0	---	0.00	30.041 
21:30	76.8	76.8	78.6	59	61.4	0	0	---	0.00	30.048 
21:35	76.7	76.7	78.5	59	61.3	0	0	---	0.00	30.048 
21:40	76.3	76.3	78.2	60	61.4	0	0	---	0.00	30.048 
21:45	76.0	76.0	78.0	61	61.6	0	0	---	0.00	30.050 
21:50	75.6	75.6	77.7	61	61.2	0	0	---	0.00	30.050 
21:55	75.3	75.3	77.5	62	61.4	0	0	---	0.00	30.050 
22:00	74.9	74.9	74.9	63	61.4	0	0	---	0.00	30.056 
22:05	74.6	74.6	74.6	64	61.6	0	0	---	0.00	30.056 
22:10	74.4	74.4	74.4	65	61.8	0	0	---	0.00	30.056 
22:15	74.0	74.0	74.0	65	61.5	0	0	---	0.00	30.059 
22:20	73.9	73.9	73.9	66	61.8	0	0	---	0.00	30.059 
22:25	73.5	73.5	73.5	67	61.9	0	0	---	0.00	30.059 
22:30	73.3	73.3	73.3	67	61.7	0	0	---	0.00	30.064 
22:35	73.0	73.0	73.0	68	61.8	0	0	---	0.00	30.064 
22:40	72.8	72.8	72.8	69	62.0	0	0	---	0.00	30.064 
22:45	72.7	72.7	72.7	70	62.3	0	0	---	0.00	30.058 
22:50	72.5	72.5	72.5	70	62.1	0	0	---	0.00	30.058 
22:55	72.3	72.3	72.3	71	62.4	0	0	---	0.00	30.058 
23:00	72.0	72.0	72.0	72	62.5	0	0	---	0.00	30.054 
23:05	71.8	71.8	71.8	72	62.3	0	0	---	0.00	30.054 
23:10	71.6	71.6	71.6	73	62.5	0	0	---	0.00	30.054 
23:15	71.3	71.3	71.3	74	62.6	0	0	---	0.00	30.054 
23:20	71.1	71.1	71.1	74	62.4	0	0	---	0.00	30.054 
23:25	70.9	70.9	70.9	75	62.6	0	0	---	0.00	30.054 
23:30	70.8	70.8	70.8	75	62.5	0	0	---	0.00	30.054 
23:35	70.6	70.6	70.6	76	62.7	0	0	---	0.00	30.054 
23:40	70.4	70.4	70.4	76	62.5	0	0	---	0.00	30.054 
23:45	70.3	70.3	70.3	77	62.7	0	0	---	0.00	30.055 
23:50	70.1	70.1	70.1	77	62.5	0	0	---	0.00	30.055 
23:55	69.9	69.9	69.9	77	62.3	0	0	---	0.00	30.055 

CoCoRaHS
IN-AL-39
A2 Web Hosting
Creative Commons License
GoDaddy
search engine by freefind advanced

loaded 2018-11-12 15:22:23 • last modified 2010-11-18 10:43:29
Privacy PolicyDisclaimer
• wx.awcolley.com is powered by PmWiki v.2002016 •
• all content (unless otherwise noted) © 2018 A W Colley